sensor_id;sensor_type;location;lat;lon;timestamp;P1;durP1;ratioP1;P2;durP2;ratioP2
71959;SDS011;59832;51.146;14.024;2023-06-14T04:02:32;5.70;;;5.07;;
71959;SDS011;59832;51.146;14.024;2023-06-14T04:04:59;8.07;;;5.63;;
71959;SDS011;59832;51.146;14.024;2023-06-14T04:07:27;7.22;;;5.32;;
71959;SDS011;59832;51.146;14.024;2023-06-14T04:09:55;6.13;;;5.15;;
71959;SDS011;59832;51.146;14.024;2023-06-14T04:12:21;7.03;;;4.97;;
71959;SDS011;59832;51.146;14.024;2023-06-14T04:14:48;6.57;;;5.00;;
71959;SDS011;59832;51.146;14.024;2023-06-14T04:17:14;5.85;;;4.68;;
71959;SDS011;59832;51.146;14.024;2023-06-14T04:19:41;5.07;;;4.57;;
71959;SDS011;59832;51.146;14.024;2023-06-14T04:22:07;5.55;;;4.43;;
71959;SDS011;59832;51.146;14.024;2023-06-14T04:24:34;5.43;;;5.00;;
71959;SDS011;59832;51.146;14.024;2023-06-14T04:27:01;5.55;;;5.05;;
71959;SDS011;59832;51.146;14.024;2023-06-14T04:29:28;7.55;;;4.72;;
71959;SDS011;59832;51.146;14.024;2023-06-14T04:31:55;6.20;;;4.80;;
71959;SDS011;59832;51.146;14.024;2023-06-14T04:34:26;5.07;;;4.65;;
71959;SDS011;59832;51.146;14.024;2023-06-14T04:36:56;5.72;;;5.22;;
71959;SDS011;59832;51.146;14.024;2023-06-14T04:39:22;5.50;;;5.00;;
71959;SDS011;59832;51.146;14.024;2023-06-14T04:41:49;5.43;;;5.03;;
71959;SDS011;59832;51.146;14.024;2023-06-14T04:44:23;5.20;;;4.70;;
71959;SDS011;59832;51.146;14.024;2023-06-14T04:46:56;7.05;;;5.00;;
71959;SDS011;59832;51.146;14.024;2023-06-14T04:49:24;7.22;;;5.18;;
71959;SDS011;59832;51.146;14.024;2023-06-14T04:51:53;6.28;;;4.72;;
71959;SDS011;59832;51.146;14.024;2023-06-14T04:54:28;6.38;;;4.55;;
71959;SDS011;59832;51.146;14.024;2023-06-14T04:56:57;8.10;;;4.65;;
71959;SDS011;59832;51.146;14.024;2023-06-14T04:59:24;4.85;;;4.43;;
71959;SDS011;59832;51.146;14.024;2023-06-14T05:01:50;4.45;;;4.00;;
71959;SDS011;59832;51.146;14.024;2023-06-14T05:04:19;5.35;;;4.45;;
71959;SDS011;59832;51.146;14.024;2023-06-14T05:06:47;6.47;;;4.32;;
71959;SDS011;59832;51.146;14.024;2023-06-14T05:09:17;4.97;;;4.47;;
71959;SDS011;59832;51.146;14.024;2023-06-14T05:11:44;4.57;;;4.18;;
71959;SDS011;59832;51.146;14.024;2023-06-14T05:14:11;5.77;;;4.40;;
71959;SDS011;59832;51.146;14.024;2023-06-14T05:16:38;7.55;;;4.65;;
71959;SDS011;59832;51.146;14.024;2023-06-14T05:19:05;5.35;;;4.70;;
71959;SDS011;59832;51.146;14.024;2023-06-14T05:21:32;4.97;;;4.55;;
71959;SDS011;59832;51.146;14.024;2023-06-14T05:24:06;4.82;;;4.43;;
71959;SDS011;59832;51.146;14.024;2023-06-14T05:26:33;4.93;;;4.53;;
71959;SDS011;59832;51.146;14.024;2023-06-14T05:28:59;4.90;;;4.50;;
71959;SDS011;59832;51.146;14.024;2023-06-14T05:31:27;6.22;;;4.30;;
71959;SDS011;59832;51.146;14.024;2023-06-14T05:33:54;5.47;;;4.22;;
71959;SDS011;59832;51.146;14.024;2023-06-14T05:36:21;4.82;;;4.10;;
71959;SDS011;59832;51.146;14.024;2023-06-14T05:38:47;4.47;;;4.10;;
71959;SDS011;59832;51.146;14.024;2023-06-14T05:41:14;5.30;;;4.80;;
71959;SDS011;59832;51.146;14.024;2023-06-14T05:43:40;4.83;;;4.17;;
71959;SDS011;59832;51.146;14.024;2023-06-14T05:46:07;5.65;;;4.05;;
71959;SDS011;59832;51.146;14.024;2023-06-14T05:48:33;4.57;;;4.17;;
71959;SDS011;59832;51.146;14.024;2023-06-14T05:51:00;5.07;;;4.45;;
71959;SDS011;59832;51.146;14.024;2023-06-14T05:53:26;8.13;;;4.60;;
71959;SDS011;59832;51.146;14.024;2023-06-14T05:55:53;4.80;;;4.22;;
71959;SDS011;59832;51.146;14.024;2023-06-14T05:58:21;5.88;;;4.70;;
71959;SDS011;59832;51.146;14.024;2023-06-14T06:00:48;4.72;;;4.30;;
71959;SDS011;59832;51.146;14.024;2023-06-14T06:03:14;4.63;;;4.30;;
71959;SDS011;59832;51.146;14.024;2023-06-14T06:05:41;4.72;;;4.32;;
71959;SDS011;59832;51.146;14.024;2023-06-14T06:08:07;5.35;;;4.18;;
71959;SDS011;59832;51.146;14.024;2023-06-14T06:10:34;4.38;;;3.97;;
71959;SDS011;59832;51.146;14.024;2023-06-14T06:13:00;5.47;;;4.60;;
71959;SDS011;59832;51.146;14.024;2023-06-14T06:15:27;4.10;;;3.80;;
71959;SDS011;59832;51.146;14.024;2023-06-14T06:17:53;4.80;;;3.85;;
71959;SDS011;59832;51.146;14.024;2023-06-14T06:20:22;4.75;;;4.18;;
71959;SDS011;59832;51.146;14.024;2023-06-14T06:22:55;3.97;;;3.58;;
71959;SDS011;59832;51.146;14.024;2023-06-14T06:25:22;4.20;;;3.80;;
71959;SDS011;59832;51.146;14.024;2023-06-14T06:27:48;4.40;;;4.00;;
71959;SDS011;59832;51.146;14.024;2023-06-14T06:30:15;5.53;;;3.58;;
71959;SDS011;59832;51.146;14.024;2023-06-14T06:32:42;4.03;;;3.30;;
71959;SDS011;59832;51.146;14.024;2023-06-14T06:35:08;4.67;;;3.17;;
71959;SDS011;59832;51.146;14.024;2023-06-14T06:37:37;3.95;;;3.60;;
71959;SDS011;59832;51.146;14.024;2023-06-14T06:40:03;3.63;;;3.20;;
71959;SDS011;59832;51.146;14.024;2023-06-14T06:42:32;3.33;;;3.03;;
71959;SDS011;59832;51.146;14.024;2023-06-14T06:44:58;6.00;;;3.13;;
71959;SDS011;59832;51.146;14.024;2023-06-14T06:47:25;3.88;;;3.58;;
71959;SDS011;59832;51.146;14.024;2023-06-14T06:49:52;5.00;;;3.47;;
71959;SDS011;59832;51.146;14.024;2023-06-14T06:52:18;3.67;;;3.38;;
71959;SDS011;59832;51.146;14.024;2023-06-14T06:54:45;3.72;;;3.35;;
71959;SDS011;59832;51.146;14.024;2023-06-14T06:57:11;5.27;;;3.80;;
71959;SDS011;59832;51.146;14.024;2023-06-14T06:59:38;3.10;;;2.90;;
71959;SDS011;59832;51.146;14.024;2023-06-14T07:02:04;5.15;;;3.15;;
71959;SDS011;59832;51.146;14.024;2023-06-14T07:04:31;3.28;;;3.00;;
71959;SDS011;59832;51.146;14.024;2023-06-14T07:06:58;4.13;;;3.22;;
71959;SDS011;59832;51.146;14.024;2023-06-14T07:09:24;3.33;;;3.03;;
71959;SDS011;59832;51.146;14.024;2023-06-14T07:11:51;3.50;;;3.20;;
71959;SDS011;59832;51.146;14.024;2023-06-14T07:14:18;4.50;;;3.25;;
71959;SDS011;59832;51.146;14.024;2023-06-14T07:16:45;2.97;;;2.78;;
71959;SDS011;59832;51.146;14.024;2023-06-14T07:19:13;5.28;;;3.00;;
71959;SDS011;59832;51.146;14.024;2023-06-14T07:21:39;2.67;;;2.47;;
71959;SDS011;59832;51.146;14.024;2023-06-14T07:24:06;4.90;;;2.80;;
71959;SDS011;59832;51.146;14.024;2023-06-14T07:26:34;2.70;;;2.50;;
71959;SDS011;59832;51.146;14.024;2023-06-14T07:31:28;4.35;;;2.53;;
71959;SDS011;59832;51.146;14.024;2023-06-14T07:33:54;4.07;;;3.20;;
71959;SDS011;59832;51.146;14.024;2023-06-14T07:36:21;2.70;;;2.50;;
71959;SDS011;59832;51.146;14.024;2023-06-14T07:38:48;4.15;;;2.30;;
71959;SDS011;59832;51.146;14.024;2023-06-14T07:41:15;3.23;;;2.60;;
71959;SDS011;59832;51.146;14.024;2023-06-14T07:43:42;2.80;;;2.60;;
71959;SDS011;59832;51.146;14.024;2023-06-14T07:46:08;3.00;;;2.80;;
71959;SDS011;59832;51.146;14.024;2023-06-14T07:48:35;3.13;;;2.75;;
71959;SDS011;59832;51.146;14.024;2023-06-14T07:51:02;2.75;;;2.55;;
71959;SDS011;59832;51.146;14.024;2023-06-14T07:53:29;2.47;;;2.23;;
71959;SDS011;59832;51.146;14.024;2023-06-14T07:55:57;2.90;;;2.70;;
71959;SDS011;59832;51.146;14.024;2023-06-14T07:58:24;2.97;;;2.60;;
71959;SDS011;59832;51.146;14.024;2023-06-14T08:00:50;6.40;;;2.58;;
71959;SDS011;59832;51.146;14.024;2023-06-14T08:03:17;4.93;;;2.35;;
71959;SDS011;59832;51.146;14.024;2023-06-14T08:05:44;2.78;;;2.55;;
71959;SDS011;59832;51.146;14.024;2023-06-14T08:08:11;3.28;;;2.40;;
71959;SDS011;59832;51.146;14.024;2023-06-14T08:10:38;2.78;;;2.33;;
71959;SDS011;59832;51.146;14.024;2023-06-14T08:13:04;3.53;;;2.30;;
71959;SDS011;59832;51.146;14.024;2023-06-14T08:15:31;2.37;;;2.20;;
71959;SDS011;59832;51.146;14.024;2023-06-14T08:17:57;2.37;;;2.17;;
71959;SDS011;59832;51.146;14.024;2023-06-14T08:20:26;3.25;;;2.10;;
71959;SDS011;59832;51.146;14.024;2023-06-14T08:22:53;2.38;;;2.17;;
71959;SDS011;59832;51.146;14.024;2023-06-14T08:25:23;7.43;;;2.38;;
71959;SDS011;59832;51.146;14.024;2023-06-14T08:27:49;5.43;;;2.40;;
71959;SDS011;59832;51.146;14.024;2023-06-14T08:30:16;2.72;;;2.53;;
71959;SDS011;59832;51.146;14.024;2023-06-14T08:32:43;3.38;;;2.28;;
71959;SDS011;59832;51.146;14.024;2023-06-14T08:35:10;3.38;;;2.30;;
71959;SDS011;59832;51.146;14.024;2023-06-14T08:37:39;2.25;;;2.08;;
71959;SDS011;59832;51.146;14.024;2023-06-14T08:40:20;2.28;;;2.08;;
71959;SDS011;59832;51.146;14.024;2023-06-14T08:42:53;1.90;;;1.80;;
71959;SDS011;59832;51.146;14.024;2023-06-14T08:45:21;2.20;;;2.00;;
71959;SDS011;59832;51.146;14.024;2023-06-14T08:47:52;2.20;;;2.00;;
71959;SDS011;59832;51.146;14.024;2023-06-14T08:50:24;2.05;;;1.85;;
71959;SDS011;59832;51.146;14.024;2023-06-14T08:52:58;2.53;;;2.13;;
71959;SDS011;59832;51.146;14.024;2023-06-14T08:55:28;2.15;;;1.90;;
71959;SDS011;59832;51.146;14.024;2023-06-14T08:58:01;2.40;;;2.30;;
71959;SDS011;59832;51.146;14.024;2023-06-14T09:00:30;2.45;;;2.03;;
71959;SDS011;59832;51.146;14.024;2023-06-14T09:02:57;2.92;;;1.90;;
71959;SDS011;59832;51.146;14.024;2023-06-14T09:05:26;5.00;;;2.30;;
71959;SDS011;59832;51.146;14.024;2023-06-14T09:07:53;2.65;;;2.42;;
71959;SDS011;59832;51.146;14.024;2023-06-14T09:10:21;5.03;;;2.42;;
71959;SDS011;59832;51.146;14.024;2023-06-14T09:12:50;2.53;;;2.28;;
71959;SDS011;59832;51.146;14.024;2023-06-14T09:15:17;2.65;;;2.20;;
71959;SDS011;59832;51.146;14.024;2023-06-14T09:17:44;2.42;;;2.22;;
71959;SDS011;59832;51.146;14.024;2023-06-14T09:20:11;2.75;;;2.50;;
71959;SDS011;59832;51.146;14.024;2023-06-14T09:22:44;2.75;;;2.55;;
71959;SDS011;59832;51.146;14.024;2023-06-14T09:27:58;3.67;;;2.55;;
71959;SDS011;59832;51.146;14.024;2023-06-14T09:30:25;4.07;;;2.13;;
71959;SDS011;59832;51.146;14.024;2023-06-14T09:32:51;2.60;;;2.40;;
71959;SDS011;59832;51.146;14.024;2023-06-14T09:35:18;2.63;;;2.40;;
71959;SDS011;59832;51.146;14.024;2023-06-14T09:37:44;2.73;;;2.47;;
71959;SDS011;59832;51.146;14.024;2023-06-14T09:40:11;3.28;;;2.35;;
71959;SDS011;59832;51.146;14.024;2023-06-14T09:42:37;2.13;;;1.92;;
71959;SDS011;59832;51.146;14.024;2023-06-14T09:45:04;3.45;;;2.10;;
71959;SDS011;59832;51.146;14.024;2023-06-14T09:47:32;2.63;;;2.20;;
71959;SDS011;59832;51.146;14.024;2023-06-14T09:49:58;2.42;;;2.22;;
71959;SDS011;59832;51.146;14.024;2023-06-14T09:52:26;2.50;;;2.28;;
71959;SDS011;59832;51.146;14.024;2023-06-14T09:54:53;2.40;;;2.20;;
71959;SDS011;59832;51.146;14.024;2023-06-14T09:57:22;3.60;;;2.53;;
71959;SDS011;59832;51.146;14.024;2023-06-14T09:59:52;2.28;;;2.13;;
71959;SDS011;59832;51.146;14.024;2023-06-14T10:02:36;4.28;;;2.30;;
71959;SDS011;59832;51.146;14.024;2023-06-14T10:05:07;2.42;;;2.22;;
71959;SDS011;59832;51.146;14.024;2023-06-14T10:08:22;2.45;;;2.20;;
71959;SDS011;59832;51.146;14.024;2023-06-14T10:10:30;2.53;;;2.30;;
71959;SDS011;59832;51.146;14.024;2023-06-14T10:12:57;2.38;;;2.20;;
71959;SDS011;59832;51.146;14.024;2023-06-14T10:15:35;2.38;;;2.17;;
71959;SDS011;59832;51.146;14.024;2023-06-14T10:18:16;3.33;;;2.47;;
71959;SDS011;59832;51.146;14.024;2023-06-14T10:20:58;3.45;;;2.40;;
71959;SDS011;59832;51.146;14.024;2023-06-14T10:23:38;4.10;;;3.00;;
71959;SDS011;59832;51.146;14.024;2023-06-14T10:26:08;4.22;;;2.88;;
71959;SDS011;59832;51.146;14.024;2023-06-14T10:28:47;6.32;;;2.95;;
71959;SDS011;59832;51.146;14.024;2023-06-14T10:31:23;5.03;;;3.08;;
71959;SDS011;59832;51.146;14.024;2023-06-14T10:33:50;4.05;;;3.03;;
71959;SDS011;59832;51.146;14.024;2023-06-14T10:38:56;5.28;;;3.15;;
71959;SDS011;59832;51.146;14.024;2023-06-14T10:41:28;3.20;;;2.90;;
71959;SDS011;59832;51.146;14.024;2023-06-14T10:46:41;3.75;;;3.15;;
71959;SDS011;59832;51.146;14.024;2023-06-14T10:49:18;3.65;;;3.20;;
71959;SDS011;59832;51.146;14.024;2023-06-14T10:51:50;3.53;;;3.22;;
71959;SDS011;59832;51.146;14.024;2023-06-14T10:54:20;3.28;;;3.05;;
71959;SDS011;59832;51.146;14.024;2023-06-14T10:56:54;4.07;;;3.30;;
71959;SDS011;59832;51.146;14.024;2023-06-14T10:59:22;4.15;;;3.13;;
71959;SDS011;59832;51.146;14.024;2023-06-14T11:04:49;2.92;;;2.58;;
71959;SDS011;59832;51.146;14.024;2023-06-14T11:07:48;4.65;;;2.97;;
71959;SDS011;59832;51.146;14.024;2023-06-14T11:10:33;3.90;;;2.72;;
71959;SDS011;59832;51.146;14.024;2023-06-14T11:13:05;4.47;;;3.30;;
71959;SDS011;59832;51.146;14.024;2023-06-14T11:15:36;7.47;;;3.70;;
71959;SDS011;59832;51.146;14.024;2023-06-14T11:18:05;4.65;;;3.33;;
71959;SDS011;59832;51.146;14.024;2023-06-14T11:20:33;5.30;;;3.05;;
71959;SDS011;59832;51.146;14.024;2023-06-14T11:23:01;4.68;;;3.08;;
71959;SDS011;59832;51.146;14.024;2023-06-14T11:25:29;3.28;;;2.78;;
71959;SDS011;59832;51.146;14.024;2023-06-14T11:27:56;4.65;;;2.40;;
71959;SDS011;59832;51.146;14.024;2023-06-14T11:32:50;2.50;;;2.28;;
71959;SDS011;59832;51.146;14.024;2023-06-14T11:35:24;3.63;;;2.63;;
71959;SDS011;59832;51.146;14.024;2023-06-14T11:37:55;3.17;;;2.92;;
71959;SDS011;59832;51.146;14.024;2023-06-14T11:40:25;3.85;;;3.13;;
71959;SDS011;59832;51.146;14.024;2023-06-14T11:42:59;3.92;;;2.75;;
71959;SDS011;59832;51.146;14.024;2023-06-14T11:45:27;3.50;;;3.00;;
71959;SDS011;59832;51.146;14.024;2023-06-14T11:47:55;4.30;;;2.92;;
71959;SDS011;59832;51.146;14.024;2023-06-14T11:50:25;3.50;;;3.15;;
71959;SDS011;59832;51.146;14.024;2023-06-14T11:55:23;5.00;;;3.22;;
71959;SDS011;59832;51.146;14.024;2023-06-14T11:57:50;3.08;;;2.72;;
71959;SDS011;59832;51.146;14.024;2023-06-14T12:00:17;4.00;;;3.60;;
71959;SDS011;59832;51.146;14.024;2023-06-14T12:02:51;4.00;;;3.30;;
71959;SDS011;59832;51.146;14.024;2023-06-14T12:05:20;5.60;;;3.40;;
71959;SDS011;59832;51.146;14.024;2023-06-14T12:15:08;3.72;;;3.40;;
71959;SDS011;59832;51.146;14.024;2023-06-14T12:17:38;3.50;;;3.10;;
71959;SDS011;59832;51.146;14.024;2023-06-14T12:20:12;5.00;;;3.28;;
71959;SDS011;59832;51.146;14.024;2023-06-14T12:22:53;3.83;;;3.53;;
71959;SDS011;59832;51.146;14.024;2023-06-14T12:28:05;5.18;;;3.80;;
71959;SDS011;59832;51.146;14.024;2023-06-14T12:30:33;5.00;;;3.58;;
71959;SDS011;59832;51.146;14.024;2023-06-14T12:33:01;6.20;;;3.67;;
71959;SDS011;59832;51.146;14.024;2023-06-14T12:35:32;4.15;;;3.75;;
71959;SDS011;59832;51.146;14.024;2023-06-14T12:37:58;5.83;;;3.20;;
71959;SDS011;59832;51.146;14.024;2023-06-14T12:40:25;3.30;;;2.75;;
71959;SDS011;59832;51.146;14.024;2023-06-14T12:42:51;5.07;;;3.03;;
71959;SDS011;59832;51.146;14.024;2023-06-14T12:45:18;3.07;;;2.80;;
71959;SDS011;59832;51.146;14.024;2023-06-14T12:47:45;3.20;;;2.67;;
71959;SDS011;59832;51.146;14.024;2023-06-14T12:50:12;3.83;;;2.85;;
71959;SDS011;59832;51.146;14.024;2023-06-14T12:52:42;5.65;;;2.92;;
71959;SDS011;59832;51.146;14.024;2023-06-14T12:55:14;2.80;;;2.58;;
71959;SDS011;59832;51.146;14.024;2023-06-14T12:57:42;2.55;;;2.35;;
71959;SDS011;59832;51.146;14.024;2023-06-14T13:00:12;2.97;;;2.38;;
71959;SDS011;59832;51.146;14.024;2023-06-14T13:02:47;2.90;;;2.70;;
71959;SDS011;59832;51.146;14.024;2023-06-14T13:05:16;3.65;;;2.33;;
71959;SDS011;59832;51.146;14.024;2023-06-14T13:07:43;2.28;;;2.10;;
71959;SDS011;59832;51.146;14.024;2023-06-14T13:10:10;2.63;;;2.42;;
71959;SDS011;59832;51.146;14.024;2023-06-14T13:12:41;2.75;;;2.50;;
71959;SDS011;59832;51.146;14.024;2023-06-14T13:15:17;4.88;;;2.75;;
71959;SDS011;59832;51.146;14.024;2023-06-14T13:17:52;3.50;;;2.70;;
71959;SDS011;59832;51.146;14.024;2023-06-14T13:20:22;2.80;;;2.60;;
71959;SDS011;59832;51.146;14.024;2023-06-14T13:22:51;3.42;;;2.60;;
71959;SDS011;59832;51.146;14.024;2023-06-14T13:25:22;2.80;;;2.58;;
71959;SDS011;59832;51.146;14.024;2023-06-14T13:27:54;3.42;;;2.60;;
71959;SDS011;59832;51.146;14.024;2023-06-14T13:30:23;3.22;;;2.67;;
71959;SDS011;59832;51.146;14.024;2023-06-14T13:32:53;2.60;;;2.40;;
71959;SDS011;59832;51.146;14.024;2023-06-14T13:35:29;2.80;;;2.60;;
71959;SDS011;59832;51.146;14.024;2023-06-14T13:37:58;2.78;;;2.50;;
71959;SDS011;59832;51.146;14.024;2023-06-14T13:40:31;3.30;;;2.50;;
71959;SDS011;59832;51.146;14.024;2023-06-14T13:42:59;3.88;;;2.60;;
71959;SDS011;59832;51.146;14.024;2023-06-14T13:45:30;3.20;;;2.63;;
71959;SDS011;59832;51.146;14.024;2023-06-14T13:47:59;3.78;;;2.72;;
71959;SDS011;59832;51.146;14.024;2023-06-14T13:50:31;3.15;;;2.42;;
71959;SDS011;59832;51.146;14.024;2023-06-14T13:53:06;2.83;;;2.35;;
71959;SDS011;59832;51.146;14.024;2023-06-14T13:55:35;3.50;;;2.10;;
71959;SDS011;59832;51.146;14.024;2023-06-14T13:58:04;2.90;;;2.70;;
71959;SDS011;59832;51.146;14.024;2023-06-14T14:00:36;2.70;;;2.50;;
71959;SDS011;59832;51.146;14.024;2023-06-14T14:03:09;2.95;;;2.47;;
71959;SDS011;59832;51.146;14.024;2023-06-14T14:05:38;2.63;;;2.42;;
71959;SDS011;59832;51.146;14.024;2023-06-14T14:08:07;2.40;;;2.20;;
71959;SDS011;59832;51.146;14.024;2023-06-14T14:10:38;2.83;;;2.63;;
71959;SDS011;59832;51.146;14.024;2023-06-14T14:13:08;4.30;;;2.33;;
71959;SDS011;59832;51.146;14.024;2023-06-14T14:15:38;5.28;;;2.83;;
71959;SDS011;59832;51.146;14.024;2023-06-14T14:18:05;3.10;;;2.80;;
71959;SDS011;59832;51.146;14.024;2023-06-14T14:20:37;2.97;;;2.78;;
71959;SDS011;59832;51.146;14.024;2023-06-14T14:23:05;2.97;;;2.78;;
71959;SDS011;59832;51.146;14.024;2023-06-14T14:25:33;3.35;;;2.83;;
71959;SDS011;59832;51.146;14.024;2023-06-14T14:28:01;2.75;;;2.55;;
71959;SDS011;59832;51.146;14.024;2023-06-14T14:30:29;6.18;;;2.90;;
71959;SDS011;59832;51.146;14.024;2023-06-14T14:32:57;3.05;;;2.50;;
71959;SDS011;59832;51.146;14.024;2023-06-14T14:35:26;6.03;;;2.58;;
71959;SDS011;59832;51.146;14.024;2023-06-14T14:37:57;2.42;;;2.22;;
71959;SDS011;59832;51.146;14.024;2023-06-14T14:40:26;5.90;;;2.60;;
71959;SDS011;59832;51.146;14.024;2023-06-14T14:42:53;4.28;;;2.90;;
71959;SDS011;59832;51.146;14.024;2023-06-14T14:45:21;2.63;;;2.42;;
71959;SDS011;59832;51.146;14.024;2023-06-14T14:47:50;2.90;;;2.70;;
71959;SDS011;59832;51.146;14.024;2023-06-14T14:50:21;3.00;;;2.70;;
71959;SDS011;59832;51.146;14.024;2023-06-14T14:52:52;3.00;;;2.78;;
71959;SDS011;59832;51.146;14.024;2023-06-14T14:55:20;2.83;;;2.63;;
71959;SDS011;59832;51.146;14.024;2023-06-14T14:57:49;3.08;;;2.42;;
71959;SDS011;59832;51.146;14.024;2023-06-14T15:00:17;2.70;;;2.50;;
71959;SDS011;59832;51.146;14.024;2023-06-14T15:02:46;2.40;;;2.20;;
71959;SDS011;59832;51.146;14.024;2023-06-14T15:05:15;2.50;;;2.30;;
71959;SDS011;59832;51.146;14.024;2023-06-14T15:07:45;2.70;;;2.50;;
71959;SDS011;59832;51.146;14.024;2023-06-14T15:10:14;2.53;;;2.33;;
71959;SDS011;59832;51.146;14.024;2023-06-14T15:12:42;2.70;;;2.50;;
71959;SDS011;59832;51.146;14.024;2023-06-14T15:15:11;2.70;;;2.50;;
71959;SDS011;59832;51.146;14.024;2023-06-14T15:17:42;2.80;;;2.60;;
71959;SDS011;59832;51.146;14.024;2023-06-14T15:20:11;5.15;;;2.90;;
71959;SDS011;59832;51.146;14.024;2023-06-14T15:22:42;2.85;;;2.40;;
71959;SDS011;59832;51.146;14.024;2023-06-14T15:25:16;3.35;;;2.85;;
71959;SDS011;59832;51.146;14.024;2023-06-14T15:27:45;3.58;;;2.90;;
71959;SDS011;59832;51.146;14.024;2023-06-14T15:30:18;3.15;;;2.85;;
71959;SDS011;59832;51.146;14.024;2023-06-14T15:32:47;3.13;;;2.90;;
71959;SDS011;59832;51.146;14.024;2023-06-14T15:35:18;3.60;;;2.95;;
71959;SDS011;59832;51.146;14.024;2023-06-14T15:37:47;2.80;;;2.60;;
71959;SDS011;59832;51.146;14.024;2023-06-14T15:40:19;2.80;;;2.60;;
71959;SDS011;59832;51.146;14.024;2023-06-14T15:42:48;3.05;;;2.78;;
71959;SDS011;59832;51.146;14.024;2023-06-14T15:45:16;3.58;;;3.28;;
71959;SDS011;59832;51.146;14.024;2023-06-14T15:47:43;3.10;;;2.90;;
71959;SDS011;59832;51.146;14.024;2023-06-14T15:50:10;3.95;;;2.80;;
71959;SDS011;59832;51.146;14.024;2023-06-14T15:52:38;3.03;;;2.80;;
71959;SDS011;59832;51.146;14.024;2023-06-14T15:55:06;3.72;;;3.08;;
71959;SDS011;59832;51.146;14.024;2023-06-14T15:57:33;3.50;;;3.20;;
71959;SDS011;59832;51.146;14.024;2023-06-14T15:59:59;3.40;;;3.10;;
71959;SDS011;59832;51.146;14.024;2023-06-14T16:02:26;3.85;;;3.20;;
71959;SDS011;59832;51.146;14.024;2023-06-14T16:04:52;4.28;;;2.90;;
71959;SDS011;59832;51.146;14.024;2023-06-14T16:07:19;3.08;;;2.78;;
71959;SDS011;59832;51.146;14.024;2023-06-14T16:09:45;4.95;;;2.90;;
71959;SDS011;59832;51.146;14.024;2023-06-14T16:12:12;2.88;;;2.67;;
71959;SDS011;59832;51.146;14.024;2023-06-14T16:14:39;2.80;;;2.53;;
71959;SDS011;59832;51.146;14.024;2023-06-14T16:17:06;6.65;;;3.22;;
71959;SDS011;59832;51.146;14.024;2023-06-14T16:19:33;3.42;;;2.53;;
71959;SDS011;59832;51.146;14.024;2023-06-14T16:21:59;3.17;;;2.88;;
71959;SDS011;59832;51.146;14.024;2023-06-14T16:24:26;3.92;;;2.85;;
71959;SDS011;59832;51.146;14.024;2023-06-14T16:26:53;4.13;;;2.60;;
71959;SDS011;59832;51.146;14.024;2023-06-14T16:29:20;2.95;;;2.75;;
71959;SDS011;59832;51.146;14.024;2023-06-14T16:31:47;2.83;;;2.63;;
71959;SDS011;59832;51.146;14.024;2023-06-14T16:34:13;2.95;;;2.70;;
71959;SDS011;59832;51.146;14.024;2023-06-14T16:36:45;2.85;;;2.65;;
71959;SDS011;59832;51.146;14.024;2023-06-14T16:39:11;5.32;;;3.50;;
71959;SDS011;59832;51.146;14.024;2023-06-14T16:41:38;4.07;;;3.42;;
71959;SDS011;59832;51.146;14.024;2023-06-14T16:44:04;3.45;;;3.15;;
71959;SDS011;59832;51.146;14.024;2023-06-14T16:46:32;3.08;;;2.88;;
71959;SDS011;59832;51.146;14.024;2023-06-14T16:49:00;2.90;;;2.70;;
71959;SDS011;59832;51.146;14.024;2023-06-14T16:53:54;3.78;;;3.00;;
71959;SDS011;59832;51.146;14.024;2023-06-14T16:56:21;2.90;;;2.70;;
71959;SDS011;59832;51.146;14.024;2023-06-14T16:58:53;5.95;;;3.05;;
71959;SDS011;59832;51.146;14.024;2023-06-14T17:01:21;3.40;;;3.05;;
71959;SDS011;59832;51.146;14.024;2023-06-14T17:03:48;3.10;;;2.90;;
71959;SDS011;59832;51.146;14.024;2023-06-14T17:06:15;5.63;;;2.88;;
71959;SDS011;59832;51.146;14.024;2023-06-14T17:08:42;3.35;;;3.05;;
71959;SDS011;59832;51.146;14.024;2023-06-14T17:13:35;5.28;;;2.58;;
71959;SDS011;59832;51.146;14.024;2023-06-14T17:16:02;3.92;;;2.85;;
71959;SDS011;59832;51.146;14.024;2023-06-14T17:18:28;3.53;;;3.22;;
71959;SDS011;59832;51.146;14.024;2023-06-14T17:20:55;3.20;;;2.90;;
71959;SDS011;59832;51.146;14.024;2023-06-14T17:23:21;3.03;;;2.70;;
71959;SDS011;59832;51.146;14.024;2023-06-14T17:25:48;2.72;;;2.53;;
71959;SDS011;59832;51.146;14.024;2023-06-14T17:28:15;2.75;;;2.55;;
71959;SDS011;59832;51.146;14.024;2023-06-14T17:30:43;3.28;;;2.67;;
71959;SDS011;59832;51.146;14.024;2023-06-14T17:33:09;2.83;;;2.63;;
71959;SDS011;59832;51.146;14.024;2023-06-14T17:35:40;3.70;;;2.90;;
71959;SDS011;59832;51.146;14.024;2023-06-14T17:38:06;2.83;;;2.63;;
71959;SDS011;59832;51.146;14.024;2023-06-14T17:40:33;2.70;;;2.50;;
71959;SDS011;59832;51.146;14.024;2023-06-14T17:43:14;3.85;;;2.80;;
71959;SDS011;59832;51.146;14.024;2023-06-14T17:45:41;2.70;;;2.50;;
71959;SDS011;59832;51.146;14.024;2023-06-14T17:48:08;3.58;;;2.70;;
71959;SDS011;59832;51.146;14.024;2023-06-14T17:50:34;2.80;;;2.60;;
71959;SDS011;59832;51.146;14.024;2023-06-14T17:53:05;2.45;;;2.30;;
71959;SDS011;59832;51.146;14.024;2023-06-14T17:55:31;2.75;;;2.50;;
71959;SDS011;59832;51.146;14.024;2023-06-14T17:58:00;2.72;;;2.50;;
71959;SDS011;59832;51.146;14.024;2023-06-14T18:00:28;4.57;;;2.47;;
71959;SDS011;59832;51.146;14.024;2023-06-14T18:02:54;2.88;;;2.58;;
71959;SDS011;59832;51.146;14.024;2023-06-14T18:05:24;3.42;;;2.30;;
71959;SDS011;59832;51.146;14.024;2023-06-14T18:07:55;2.60;;;2.40;;
71959;SDS011;59832;51.146;14.024;2023-06-14T18:10:22;3.47;;;2.50;;
71959;SDS011;59832;51.146;14.024;2023-06-14T18:12:48;2.58;;;2.38;;
71959;SDS011;59832;51.146;14.024;2023-06-14T18:15:15;2.55;;;2.35;;
71959;SDS011;59832;51.146;14.024;2023-06-14T18:17:42;3.95;;;2.50;;
71959;SDS011;59832;51.146;14.024;2023-06-14T18:20:09;2.85;;;2.65;;
71959;SDS011;59832;51.146;14.024;2023-06-14T18:22:36;5.90;;;3.00;;
71959;SDS011;59832;51.146;14.024;2023-06-14T18:25:02;4.32;;;2.40;;
71959;SDS011;59832;51.146;14.024;2023-06-14T18:27:29;3.08;;;2.10;;
71959;SDS011;59832;51.146;14.024;2023-06-14T18:29:55;4.32;;;2.55;;
71959;SDS011;59832;51.146;14.024;2023-06-14T18:32:22;2.47;;;2.23;;
71959;SDS011;59832;51.146;14.024;2023-06-14T18:34:48;2.60;;;2.40;;
71959;SDS011;59832;51.146;14.024;2023-06-14T18:37:15;2.60;;;2.40;;
71959;SDS011;59832;51.146;14.024;2023-06-14T18:39:42;2.90;;;2.28;;
71959;SDS011;59832;51.146;14.024;2023-06-14T18:42:09;6.60;;;2.90;;
71959;SDS011;59832;51.146;14.024;2023-06-14T18:44:37;3.15;;;2.53;;
71959;SDS011;59832;51.146;14.024;2023-06-14T18:47:03;2.53;;;2.33;;
71959;SDS011;59832;51.146;14.024;2023-06-14T18:49:30;2.80;;;2.60;;
71959;SDS011;59832;51.146;14.024;2023-06-14T18:51:57;2.95;;;2.70;;
71959;SDS011;59832;51.146;14.024;2023-06-14T18:54:24;4.68;;;2.55;;
71959;SDS011;59832;51.146;14.024;2023-06-14T18:56:52;4.15;;;2.30;;
71959;SDS011;59832;51.146;14.024;2023-06-14T18:59:18;3.77;;;2.63;;
71959;SDS011;59832;51.146;14.024;2023-06-14T19:01:44;3.17;;;2.57;;
71959;SDS011;59832;51.146;14.024;2023-06-14T19:04:11;4.03;;;2.77;;
71959;SDS011;59832;51.146;14.024;2023-06-14T19:06:37;2.80;;;2.60;;
71959;SDS011;59832;51.146;14.024;2023-06-14T19:09:04;2.83;;;2.50;;
71959;SDS011;59832;51.146;14.024;2023-06-14T19:11:31;3.05;;;2.85;;
71959;SDS011;59832;51.146;14.024;2023-06-14T19:13:57;2.83;;;2.63;;
71959;SDS011;59832;51.146;14.024;2023-06-14T19:16:24;3.00;;;2.80;;